Time;durP1;ratioP1;P1;durP2;ratioP2;P2;SDS_P1;SDS_P2;PMS_P1;PMS_P2;Temp;Humidity;BMP_temperature;BMP_pressure;BME280_temperature;BME280_humidity;BME280_pressure;Samples;Min_cycle;Max_cycle;Signal;HPM_P1;HPM_P2
2021/05/23 00:00:56;;;;;;;7.83;7.13;;;;;20.90;99794.00;;;;2046293;28;20228;-51
2021/05/23 00:01:59;;;;;;;8.20;7.40;;;;;20.90;99791.00;;;;2046029;28;20695;-51
2021/05/23 00:03:02;;;;;;;8.95;7.90;;;;;20.90;99795.00;;;;2046125;28;20552;-52
2021/05/23 00:04:02;;;;;;;14.52;8.15;;;;;20.90;99790.00;;;;2046461;28;20213;-51
2021/05/23 00:05:05;;;;;;;7.83;7.00;;;;;20.90;99796.00;;;;2046368;28;20220;-51
2021/05/23 00:06:05;;;;;;;9.40;7.93;;;;;20.80;99785.00;;;;2046405;28;20224;-51
2021/05/23 00:07:07;;;;;;;7.97;6.87;;;;;20.80;99786.00;;;;2046376;28;20684;-50
2021/05/23 00:08:12;;;;;;;7.30;6.50;;;;;20.90;99793.00;;;;2038129;29;20526;-51
2021/05/23 00:09:13;;;;;;;7.85;7.05;;;;;20.80;99794.00;;;;2038701;29;20586;-51
2021/05/23 00:10:13;;;;;;;8.83;6.87;;;;;20.80;99784.00;;;;2046327;28;20221;-51
2021/05/23 00:11:13;;;;;;;8.03;6.90;;;;;20.80;99793.00;;;;2047013;28;20236;-51
2021/05/23 00:12:16;;;;;;;7.93;7.13;;;;;20.80;99789.00;;;;2047888;28;21131;-51
2021/05/23 00:13:18;;;;;;;11.07;7.43;;;;;20.80;99790.00;;;;2046923;28;20209;-51
2021/05/23 00:14:18;;;;;;;7.93;7.10;;;;;20.80;99792.00;;;;2046147;28;20217;-51
2021/05/23 00:15:25;;;;;;;8.00;6.77;;;;;20.80;99788.00;;;;2046463;28;20569;-51
2021/05/23 00:16:26;;;;;;;7.30;6.60;;;;;20.60;99801.00;;;;2045668;28;20213;-51
2021/05/23 00:17:26;;;;;;;7.35;5.85;;;;;20.80;99793.00;;;;2046363;28;20225;-51
2021/05/23 00:18:28;;;;;;;7.17;6.13;;;;;20.80;99801.00;;;;2045978;28;20213;-51
2021/05/23 00:19:28;;;;;;;6.20;5.60;;;;;20.80;99790.00;;;;2046216;28;20953;-51
2021/05/23 00:20:29;;;;;;;7.43;5.97;;;;;20.80;99793.00;;;;2046315;28;20228;-51
2021/05/23 00:21:30;;;;;;;6.17;5.57;;;;;20.80;99796.00;;;;2045465;28;20271;-51
2021/05/23 00:22:30;;;;;;;6.65;5.75;;;;;20.80;99794.00;;;;2046092;28;20309;-51
2021/05/23 00:23:30;;;;;;;6.27;5.67;;;;;20.80;99788.00;;;;2046039;28;20228;-50
2021/05/23 00:24:31;;;;;;;6.00;5.50;;;;;20.80;99790.00;;;;2045582;28;20289;-51
2021/05/23 00:25:32;;;;;;;6.63;6.03;;;;;20.80;99793.00;;;;2045330;29;20225;-51
2021/05/23 00:26:32;;;;;;;5.00;4.50;;;;;20.80;99796.00;;;;2046570;28;20232;-53
2021/05/23 00:27:33;;;;;;;6.20;5.33;;;;;20.80;99794.00;;;;2046798;28;20700;-54
2021/05/23 00:28:35;;;;;;;5.73;5.20;;;;;20.80;99794.00;;;;2046708;28;20221;-54
2021/05/23 00:29:35;;;;;;;5.50;4.95;;;;;20.70;99784.00;;;;2045300;28;20220;-53
2021/05/23 00:30:37;;;;;;;6.30;5.70;;;;;20.80;99795.00;;;;2054201;28;21178;-52
2021/05/23 00:31:38;;;;;;;5.78;4.88;;;;;20.80;99791.00;;;;2053571;28;20232;-52
2021/05/23 00:32:38;;;;;;;6.03;5.25;;;;;20.70;99792.00;;;;2054718;28;20278;-51
2021/05/23 00:33:39;;;;;;;5.93;5.23;;;;;20.80;99794.00;;;;2053414;28;20775;-51
2021/05/23 00:34:39;;;;;;;5.50;5.00;;;;;20.70;99785.00;;;;2054106;28;20222;-51
2021/05/23 00:35:40;;;;;;;5.60;5.00;;;;;20.70;99788.00;;;;2054164;28;20212;-51
2021/05/23 00:36:40;;;;;;;5.53;5.00;;;;;20.70;99794.00;;;;2054170;28;20274;-52
2021/05/23 00:37:40;;;;;;;5.60;4.50;;;;;20.70;99795.00;;;;2053851;28;20212;-51
2021/05/23 00:38:41;;;;;;;5.27;4.40;;;;;20.70;99792.00;;;;2048789;28;20220;-51
2021/05/23 00:39:41;;;;;;;4.97;4.47;;;;;20.70;99794.00;;;;2054142;28;20311;-51
2021/05/23 00:40:41;;;;;;;5.23;4.73;;;;;20.70;99790.00;;;;2051072;28;20315;-51
2021/05/23 00:41:42;;;;;;;4.80;4.33;;;;;20.70;99792.00;;;;2045791;28;20217;-52
2021/05/23 00:42:42;;;;;;;4.63;4.23;;;;;20.70;99792.00;;;;2047245;28;20236;-52
2021/05/23 00:43:42;;;;;;;7.27;4.70;;;;;20.70;99789.00;;;;2049243;28;20224;-52
2021/05/23 00:44:43;;;;;;;5.40;4.77;;;;;20.70;99790.00;;;;2046528;28;20216;-51
2021/05/23 00:45:45;;;;;;;5.37;4.63;;;;;20.70;99784.00;;;;2046670;28;20698;-52
2021/05/23 00:46:45;;;;;;;4.70;4.25;;;;;20.70;99788.00;;;;2046429;29;20225;-51
2021/05/23 00:47:46;;;;;;;4.67;4.17;;;;;20.70;99790.00;;;;2046433;28;20217;-52
2021/05/23 00:48:46;;;;;;;4.93;4.30;;;;;20.70;99787.00;;;;2046059;28;20212;-52
2021/05/23 00:49:47;;;;;;;5.50;4.10;;;;;20.70;99792.00;;;;2036798;29;20217;-51
2021/05/23 00:50:47;;;;;;;4.33;3.93;;;;;20.70;99792.00;;;;2045895;28;20283;-51
2021/05/23 00:51:48;;;;;;;4.43;4.03;;;;;20.70;99794.00;;;;2045588;28;20649;-51
2021/05/23 00:52:48;;;;;;;5.53;3.83;;;;;20.70;99790.00;;;;2046585;28;20275;-52
2021/05/23 00:53:49;;;;;;;4.20;3.57;;;;;20.70;99790.00;;;;2041893;28;20319;-51
2021/05/23 00:54:49;;;;;;;3.70;3.37;;;;;20.70;99802.00;;;;2046632;28;20227;-51
2021/05/23 00:55:49;;;;;;;3.73;3.33;;;;;20.70;99799.00;;;;2052231;28;20234;-52
2021/05/23 00:56:50;;;;;;;4.03;3.63;;;;;20.70;99800.00;;;;2054468;28;20635;-52
2021/05/23 00:57:50;;;;;;;3.93;3.60;;;;;20.60;99806.00;;;;2054374;28;20243;-51
2021/05/23 00:58:51;;;;;;;5.03;3.80;;;;;20.60;99791.00;;;;2053590;28;20220;-52
2021/05/23 00:59:51;;;;;;;3.60;3.30;;;;;20.60;99790.00;;;;2053747;28;20222;-51
2021/05/23 01:00:54;;;;;;;3.53;3.23;;;;;20.70;99796.00;;;;2054030;28;20570;-51
2021/05/23 01:01:54;;;;;;;3.78;3.38;;;;;20.60;99796.00;;;;2053222;28;20250;-51
2021/05/23 01:02:55;;;;;;;4.07;3.47;;;;;20.60;99800.00;;;;2052938;28;20727;-52
2021/05/23 01:03:56;;;;;;;3.93;3.57;;;;;20.60;99798.00;;;;2046001;28;20304;-51
2021/05/23 01:04:56;;;;;;;3.38;3.08;;;;;20.60;99803.00;;;;2045806;28;20219;-52
2021/05/23 01:05:58;;;;;;;3.40;2.87;;;;;20.60;99801.00;;;;2045824;28;20235;-52
2021/05/23 01:06:58;;;;;;;2.88;2.58;;;;;20.60;99803.00;;;;2044630;28;20232;-52
2021/05/23 01:07:58;;;;;;;3.30;3.00;;;;;20.70;99809.00;;;;2045842;28;20312;-51
2021/05/23 01:08:59;;;;;;;3.90;2.93;;;;;20.60;99802.00;;;;2045358;29;20283;-52
2021/05/23 01:10:07;;;;;;;3.33;2.97;;;;;20.60;99810.00;;;;2045909;28;20304;-52
2021/05/23 01:11:29;;;;;;;3.10;2.90;;;;;20.60;99806.00;;;;2048805;28;20303;-51
2021/05/23 01:12:52;;;;;;;3.72;2.67;;;;;20.60;99811.00;;;;2048115;28;20221;-51
2021/05/23 01:13:59;;;;;;;3.00;2.50;;;;;20.60;99807.00;;;;2020300;29;20627;-52
2021/05/23 01:15:00;;;;;;;2.95;2.38;;;;;20.60;99807.00;;;;2045330;28;20220;-52
2021/05/23 01:16:21;;;;;;;3.13;2.83;;;;;20.60;99813.00;;;;2045780;28;20240;-52
2021/05/23 01:17:27;;;;;;;3.17;2.88;;;;;20.60;99805.00;;;;2049635;28;20585;-51
2021/05/23 01:18:37;;;;;;;3.08;2.78;;;;;20.60;99812.00;;;;2037096;29;20221;-52
2021/05/23 01:20:02;;;;;;;2.97;2.63;;;;;20.60;99811.00;;;;2039897;28;20228;-51
2021/05/23 01:21:03;;;;;;;3.20;2.75;;;;;20.60;99810.00;;;;2045763;28;20212;-52
2021/05/23 01:22:26;;;;;;;3.00;2.53;;;;;20.60;99808.00;;;;2053650;28;20224;-51
2021/05/23 01:23:27;;;;;;;3.30;3.00;;;;;20.60;99824.00;;;;2043298;29;20472;-51
2021/05/23 01:24:31;;;;;;;2.50;2.30;;;;;20.60;99822.00;;;;2044729;28;20737;-52
2021/05/23 01:25:32;;;;;;;2.80;2.60;;;;;20.60;99812.00;;;;2045338;29;20283;-52
2021/05/23 01:26:33;;;;;;;2.77;2.50;;;;;20.60;99819.00;;;;2045063;29;20441;-52
2021/05/23 01:27:36;;;;;;;4.03;2.40;;;;;20.60;99821.00;;;;2053281;28;20739;-52
2021/05/23 01:28:47;;;;;;;2.70;2.50;;;;;20.60;99830.00;;;;2038901;29;20224;-51
2021/05/23 01:29:47;;;;;;;3.38;2.70;;;;;20.60;99821.00;;;;2030615;29;20590;-51
2021/05/23 01:30:49;;;;;;;2.80;2.37;;;;;20.60;99826.00;;;;2037302;29;20252;-52
2021/05/23 01:31:50;;;;;;;2.10;1.90;;;;;20.60;99825.00;;;;2052222;28;20224;-52
2021/05/23 01:32:51;;;;;;;2.20;2.00;;;;;20.60;99822.00;;;;2044748;29;20220;-52
2021/05/23 01:33:51;;;;;;;3.27;2.57;;;;;20.60;99809.00;;;;2028681;29;20738;-50
2021/05/23 01:34:52;;;;;;;2.60;2.40;;;;;20.60;99821.00;;;;2037529;28;20209;-52
2021/05/23 01:35:57;;;;;;;2.70;2.33;;;;;20.60;99811.00;;;;2053537;28;21062;-52
2021/05/23 01:36:57;;;;;;;2.95;2.40;;;;;20.60;99825.00;;;;2053864;28;20227;-52
2021/05/23 01:38:00;;;;;;;2.30;2.10;;;;;20.60;99821.00;;;;2053959;28;20307;-52
2021/05/23 01:39:03;;;;;;;3.00;2.63;;;;;20.50;99817.00;;;;2053715;28;20216;-52
2021/05/23 01:40:04;;;;;;;3.55;2.40;;;;;20.50;99808.00;;;;2053342;28;20637;-52
2021/05/23 01:41:06;;;;;;;2.50;2.30;;;;;20.50;99826.00;;;;2050235;28;20232;-51
2021/05/23 01:42:08;;;;;;;3.17;2.42;;;;;20.50;99825.00;;;;2038920;29;20937;-52
2021/05/23 01:43:08;;;;;;;2.28;2.08;;;;;20.50;99830.00;;;;2030391;29;20225;-56
2021/05/23 01:44:09;;;;;;;2.83;2.20;;;;;20.50;99812.00;;;;2036565;29;20217;-51
2021/05/23 01:45:10;;;;;;;2.57;2.10;;;;;20.50;99824.00;;;;2047520;28;20220;-52
2021/05/23 01:46:10;;;;;;;2.60;2.40;;;;;20.50;99830.00;;;;2038527;29;20245;-51
2021/05/23 01:47:11;;;;;;;2.40;2.10;;;;;20.50;99824.00;;;;2021913;29;20246;-51
2021/05/23 01:48:11;;;;;;;4.70;2.40;;;;;20.50;99823.00;;;;2028668;29;20293;-51
2021/05/23 01:49:11;;;;;;;2.43;2.10;;;;;20.50;99826.00;;;;2040754;29;20219;-52
2021/05/23 01:50:12;;;;;;;2.20;2.00;;;;;20.50;99817.00;;;;2040418;29;20216;-51
2021/05/23 01:51:12;;;;;;;2.50;2.13;;;;;20.50;99812.00;;;;2036078;29;20221;-51
2021/05/23 01:52:12;;;;;;;2.93;2.20;;;;;20.50;99823.00;;;;2044872;28;20581;-51
2021/05/23 01:53:13;;;;;;;2.80;1.97;;;;;20.50;99823.00;;;;2046109;28;20216;-51
2021/05/23 01:54:13;;;;;;;2.67;1.83;;;;;20.50;99824.00;;;;2044309;28;20291;-51
2021/05/23 01:55:14;;;;;;;3.80;2.27;;;;;20.50;99819.00;;;;2045941;28;20216;-52
2021/05/23 01:56:14;;;;;;;3.17;2.00;;;;;20.50;99820.00;;;;2045794;28;20219;-51
2021/05/23 01:57:14;;;;;;;3.07;2.13;;;;;20.50;99822.00;;;;2045119;28;20219;-51
2021/05/23 01:58:15;;;;;;;2.10;1.60;;;;;20.50;99822.00;;;;2046064;28;20251;-51
2021/05/23 01:59:15;;;;;;;2.20;2.00;;;;;20.50;99824.00;;;;2045748;28;20360;-51
2021/05/23 02:00:18;;;;;;;3.20;2.07;;;;;20.50;99826.00;;;;2045628;28;20656;-51
2021/05/23 02:01:19;;;;;;;2.33;1.98;;;;;20.50;99821.00;;;;2045010;28;20227;-52
2021/05/23 02:02:19;;;;;;;2.22;2.03;;;;;20.50;99824.00;;;;2045763;28;20216;-52
2021/05/23 02:03:21;;;;;;;1.50;1.33;;;;;20.50;99822.00;;;;2045792;28;20208;-51
2021/05/23 02:04:22;;;;;;;2.15;1.75;;;;;20.50;99827.00;;;;2044917;28;20217;-52
2021/05/23 02:05:22;;;;;;;2.38;2.17;;;;;20.50;99832.00;;;;2029237;29;20222;-52
2021/05/23 02:06:23;;;;;;;2.40;2.10;;;;;20.50;99824.00;;;;2021508;29;20609;-53
2021/05/23 02:07:23;;;;;;;2.33;2.07;;;;;20.50;99829.00;;;;2029432;29;20214;-53
2021/05/23 02:08:24;;;;;;;2.10;1.60;;;;;20.50;99826.00;;;;2019745;29;20301;-52
2021/05/23 02:09:25;;;;;;;2.20;1.98;;;;;20.50;99829.00;;;;2045124;29;20212;-51
2021/05/23 02:10:25;;;;;;;2.60;1.70;;;;;20.50;99822.00;;;;2048974;28;20322;-51
2021/05/23 02:11:25;;;;;;;1.97;1.87;;;;;20.50;99824.00;;;;2045013;28;20685;-51
2021/05/23 02:12:26;;;;;;;1.87;1.70;;;;;20.50;99823.00;;;;2046145;28;20220;-52
2021/05/23 02:13:27;;;;;;;2.30;1.90;;;;;20.50;99824.00;;;;2038656;28;20232;-51
2021/05/23 02:14:27;;;;;;;2.10;1.70;;;;;20.50;99828.00;;;;2045343;28;20236;-51
2021/05/23 02:15:27;;;;;;;1.80;1.60;;;;;20.40;99824.00;;;;2045306;29;20472;-50
2021/05/23 02:16:30;;;;;;;1.90;1.67;;;;;20.50;99826.00;;;;2045623;28;20256;-51
2021/05/23 02:17:38;;;;;;;2.42;1.60;;;;;20.40;99827.00;;;;2041226;29;20232;-52
2021/05/23 02:18:38;;;;;;;2.00;1.73;;;;;20.40;99817.00;;;;2046329;28;20219;-51
2021/05/23 02:19:38;;;;;;;1.77;1.67;;;;;20.50;99821.00;;;;2053353;28;20251;-51
2021/05/23 02:20:39;;;;;;;3.23;1.80;;;;;20.40;99813.00;;;;2053036;28;20228;-52
2021/05/23 02:21:39;;;;;;;2.00;1.60;;;;;20.40;99824.00;;;;2052758;28;20220;-53
2021/05/23 02:22:43;;;;;;;2.20;1.67;;;;;20.50;99826.00;;;;2053729;28;20243;-53
2021/05/23 02:23:48;;;;;;;1.83;1.42;;;;;20.40;99824.00;;;;2053538;28;20224;-51
2021/05/23 02:24:49;;;;;;;2.30;1.60;;;;;20.40;99821.00;;;;2053109;28;20267;-50
2021/05/23 02:25:51;;;;;;;1.73;1.30;;;;;20.40;99820.00;;;;2054674;28;20215;-52
2021/05/23 02:26:51;;;;;;;2.08;1.88;;;;;20.40;99822.00;;;;2050555;28;20221;-52
2021/05/23 02:27:56;;;;;;;3.23;1.90;;;;;20.40;99824.00;;;;2054217;28;20653;-52
2021/05/23 02:28:56;;;;;;;1.90;1.40;;;;;20.40;99812.00;;;;2053764;28;20291;-53
2021/05/23 02:29:57;;;;;;;1.90;1.60;;;;;20.40;99820.00;;;;2054539;28;20270;-52
2021/05/23 02:30:57;;;;;;;1.70;1.30;;;;;20.40;99818.00;;;;2050682;28;20849;-52
2021/05/23 02:31:58;;;;;;;1.87;1.67;;;;;20.40;99811.00;;;;2054194;28;20204;-52
2021/05/23 02:32:58;;;;;;;2.27;2.00;;;;;20.40;99818.00;;;;2046362;29;20271;-52
2021/05/23 02:33:58;;;;;;;2.30;1.20;;;;;20.40;99812.00;;;;2045423;29;20216;-52
2021/05/23 02:34:59;;;;;;;1.90;1.80;;;;;20.40;99812.00;;;;2047007;28;20213;-52
2021/05/23 02:35:59;;;;;;;2.63;1.97;;;;;20.40;99821.00;;;;2048507;28;20216;-52
2021/05/23 02:36:59;;;;;;;1.80;1.40;;;;;20.40;99826.00;;;;2054518;28;20204;-51
2021/05/23 02:38:00;;;;;;;1.70;1.40;;;;;20.40;99828.00;;;;2048850;28;20706;-52
2021/05/23 02:39:01;;;;;;;2.08;1.40;;;;;20.40;99826.00;;;;2047702;28;20213;-51
2021/05/23 02:40:12;;;;;;;1.50;1.40;;;;;20.40;99829.00;;;;2055396;28;20212;-51
2021/05/23 02:41:13;;;;;;;1.77;1.60;;;;;20.40;99830.00;;;;2050952;28;20228;-53
2021/05/23 02:42:13;;;;;;;1.73;1.47;;;;;20.40;99835.00;;;;2050809;28;20200;-53
2021/05/23 02:43:13;;;;;;;2.70;2.03;;;;;20.40;99832.00;;;;2050051;28;20212;-51
2021/05/23 02:44:14;;;;;;;1.50;1.30;;;;;20.40;99830.00;;;;2047696;28;20208;-51
2021/05/23 02:45:15;;;;;;;1.63;1.53;;;;;20.40;99824.00;;;;2047789;28;20213;-52
2021/05/23 02:46:16;;;;;;;1.70;1.60;;;;;20.40;99832.00;;;;2051254;28;20230;-51
2021/05/23 02:47:16;;;;;;;1.47;1.33;;;;;20.40;99828.00;;;;2055963;28;20220;-52
2021/05/23 02:48:16;;;;;;;2.37;1.73;;;;;20.40;99832.00;;;;2056318;28;20219;-51
2021/05/23 02:49:17;;;;;;;1.77;1.50;;;;;20.40;99827.00;;;;2050140;28;20693;-53
2021/05/23 02:50:28;;;;;;;1.43;1.30;;;;;20.40;99830.00;;;;2052564;28;20215;-52
2021/05/23 02:51:28;;;;;;;1.70;1.30;;;;;20.40;99833.00;;;;2053154;28;20270;-52
2021/05/23 02:52:28;;;;;;;1.67;1.33;;;;;20.40;99834.00;;;;2048584;28;20271;-52
2021/05/23 02:53:29;;;;;;;1.77;1.30;;;;;20.40;99836.00;;;;2048904;28;20212;-53
2021/05/23 02:54:29;;;;;;;1.43;1.30;;;;;20.40;99834.00;;;;2047567;28;21008;-52
2021/05/23 02:55:30;;;;;;;1.40;1.30;;;;;20.40;99831.00;;;;2048374;28;20235;-51
2021/05/23 02:56:30;;;;;;;1.70;1.60;;;;;20.40;99831.00;;;;2048480;28;20938;-52
2021/05/23 02:57:30;;;;;;;1.73;1.30;;;;;20.40;99835.00;;;;2052043;28;20589;-52
2021/05/23 02:58:31;;;;;;;1.47;1.23;;;;;20.40;99836.00;;;;2056043;28;20220;-51
2021/05/23 02:59:31;;;;;;;1.90;1.40;;;;;20.40;99836.00;;;;2055580;28;20247;-53
2021/05/23 03:00:31;;;;;;;2.00;1.47;;;;;20.40;99837.00;;;;2050183;28;20744;-52
2021/05/23 03:01:32;;;;;;;1.80;1.47;;;;;20.40;99834.00;;;;2038650;29;20706;-53
2021/05/23 03:02:33;;;;;;;1.83;1.27;;;;;20.40;99845.00;;;;2041960;29;20296;-50
2021/05/23 03:03:33;;;;;;;1.50;1.30;;;;;20.40;99851.00;;;;2049950;28;20263;-53
2021/05/23 03:04:33;;;;;;;1.53;1.40;;;;;20.40;99839.00;;;;2047603;28;20965;-54
2021/05/23 03:05:34;;;;;;;1.80;1.70;;;;;20.40;99847.00;;;;2048088;28;20275;-53
2021/05/23 03:06:34;;;;;;;2.07;1.63;;;;;20.40;99850.00;;;;2047887;28;20237;-52
2021/05/23 03:07:36;;;;;;;1.77;1.40;;;;;20.40;99840.00;;;;2048183;28;20303;-51
2021/05/23 03:08:36;;;;;;;1.92;1.25;;;;;20.40;99846.00;;;;2047959;28;20220;-52
2021/05/23 03:09:37;;;;;;;1.50;1.40;;;;;20.40;99853.00;;;;2047357;28;20586;-51
2021/05/23 03:10:42;;;;;;;1.93;1.33;;;;;20.40;99853.00;;;;2048101;28;20606;-52
2021/05/23 03:11:43;;;;;;;2.45;1.60;;;;;20.40;99843.00;;;;2051716;28;20220;-51
2021/05/23 03:12:44;;;;;;;1.60;1.50;;;;;20.40;99857.00;;;;2052117;28;20299;-53
2021/05/23 03:13:44;;;;;;;1.50;1.40;;;;;20.30;99849.00;;;;2052028;28;20539;-51
2021/05/23 03:14:45;;;;;;;1.60;1.50;;;;;20.40;99858.00;;;;2055824;28;20511;-52
2021/05/23 03:15:45;;;;;;;2.07;1.40;;;;;20.30;99854.00;;;;2055876;28;20263;-51
2021/05/23 03:16:45;;;;;;;2.27;1.73;;;;;20.30;99852.00;;;;2055644;28;20276;-53
2021/05/23 03:17:46;;;;;;;1.70;1.40;;;;;20.30;99858.00;;;;2055579;28;20216;-51
2021/05/23 03:18:46;;;;;;;1.77;1.67;;;;;20.40;99862.00;;;;2048286;28;20236;-52
2021/05/23 03:19:47;;;;;;;1.73;1.40;;;;;20.30;99863.00;;;;2048268;28;20209;-51
2021/05/23 03:20:47;;;;;;;2.83;1.97;;;;;20.30;99871.00;;;;2048056;28;20213;-53
2021/05/23 03:21:47;;;;;;;1.60;1.30;;;;;20.40;99870.00;;;;2047268;28;20244;-52
2021/05/23 03:22:50;;;;;;;2.13;1.60;;;;;20.30;99870.00;;;;2050783;28;20224;-53
2021/05/23 03:23:50;;;;;;;1.30;1.20;;;;;20.30;99867.00;;;;2056043;28;20243;-52
2021/05/23 03:24:50;;;;;;;1.90;1.80;;;;;20.30;99871.00;;;;2056008;28;20219;-52
2021/05/23 03:25:51;;;;;;;1.60;1.50;;;;;20.30;99868.00;;;;2052038;28;20303;-53
2021/05/23 03:26:51;;;;;;;1.67;1.50;;;;;20.30;99872.00;;;;2050925;28;20721;-52
2021/05/23 03:27:52;;;;;;;1.80;1.70;;;;;20.30;99868.00;;;;2039374;29;20244;-52
2021/05/23 03:28:52;;;;;;;1.60;1.50;;;;;20.30;99871.00;;;;2039542;29;20225;-51
2021/05/23 03:29:52;;;;;;;1.73;1.50;;;;;20.30;99873.00;;;;2048105;28;20694;-52
2021/05/23 03:30:53;;;;;;;2.33;1.90;;;;;20.30;99878.00;;;;2049784;28;20585;-52
2021/05/23 03:31:53;;;;;;;1.93;1.73;;;;;20.30;99876.00;;;;2053860;28;20267;-51
2021/05/23 03:32:53;;;;;;;1.60;1.50;;;;;20.30;99878.00;;;;2056189;28;20216;-51
2021/05/23 03:33:54;;;;;;;1.60;1.50;;;;;20.30;99877.00;;;;2044143;29;20221;-51
2021/05/23 03:34:54;;;;;;;1.93;1.73;;;;;20.30;99867.00;;;;2043448;29;20219;-52
2021/05/23 03:35:54;;;;;;;1.77;1.67;;;;;20.30;99882.00;;;;2047033;28;20220;-51
2021/05/23 03:36:55;;;;;;;1.87;1.43;;;;;20.30;99886.00;;;;2047017;28;20212;-52
2021/05/23 03:37:55;;;;;;;2.00;1.80;;;;;20.30;99882.00;;;;2047016;28;20233;-52
2021/05/23 03:38:55;;;;;;;1.73;1.63;;;;;20.30;99889.00;;;;2044583;28;20224;-53
2021/05/23 03:39:56;;;;;;;1.60;1.50;;;;;20.30;99882.00;;;;2038451;29;20214;-52
2021/05/23 03:40:56;;;;;;;1.73;1.50;;;;;20.30;99881.00;;;;2039786;29;20603;-50
2021/05/23 03:41:56;;;;;;;2.10;1.67;;;;;20.30;99886.00;;;;2050118;28;20867;-51
2021/05/23 03:42:57;;;;;;;1.73;1.63;;;;;20.30;99891.00;;;;2047568;28;20248;-51
2021/05/23 03:43:57;;;;;;;2.13;1.90;;;;;20.30;99892.00;;;;2052828;28;20216;-52
2021/05/23 03:44:57;;;;;;;2.33;2.13;;;;;20.30;99886.00;;;;2054784;28;20238;-51
2021/05/23 03:45:58;;;;;;;2.17;2.00;;;;;20.30;99892.00;;;;2054542;28;20216;-51
2021/05/23 03:46:58;;;;;;;2.00;1.90;;;;;20.30;99887.00;;;;2054631;28;20211;-52
2021/05/23 03:47:58;;;;;;;2.13;1.93;;;;;20.30;99893.00;;;;2050987;28;20221;-50
2021/05/23 03:48:59;;;;;;;2.00;1.90;;;;;20.30;99889.00;;;;2046542;28;20205;-52
2021/05/23 03:49:59;;;;;;;1.80;1.70;;;;;20.30;99886.00;;;;2046406;28;20213;-52
2021/05/23 03:51:00;;;;;;;2.40;2.20;;;;;20.30;99888.00;;;;2050546;28;20223;-49
2021/05/23 03:52:00;;;;;;;2.13;1.93;;;;;20.30;99902.00;;;;2054661;28;20220;-53
2021/05/23 03:53:00;;;;;;;1.90;1.80;;;;;20.30;99890.00;;;;2049406;28;20221;-53
2021/05/23 03:54:01;;;;;;;2.23;2.03;;;;;20.30;99900.00;;;;2041867;28;20697;-49
2021/05/23 03:55:01;;;;;;;1.90;1.80;;;;;20.30;99895.00;;;;2044724;29;20283;-53
2021/05/23 03:56:01;;;;;;;1.90;1.80;;;;;20.30;99900.00;;;;2046536;29;20216;-52
2021/05/23 03:57:03;;;;;;;2.40;2.03;;;;;20.30;99907.00;;;;2054880;28;20216;-50
2021/05/23 03:58:03;;;;;;;2.10;2.00;;;;;20.30;99902.00;;;;2054957;28;20223;-53
2021/05/23 03:59:04;;;;;;;2.10;1.90;;;;;20.30;99899.00;;;;2054995;28;20768;-52
2021/05/23 04:00:06;;;;;;;2.27;2.13;;;;;20.30;99901.00;;;;2047245;28;20213;-53
2021/05/23 04:01:07;;;;;;;2.20;2.05;;;;;20.30;99898.00;;;;2046280;28;20224;-49
2021/05/23 04:02:07;;;;;;;3.27;1.80;;;;;20.30;99905.00;;;;2052103;28;20274;-51
2021/05/23 04:03:07;;;;;;;2.40;2.20;;;;;20.30;99903.00;;;;2053427;28;20227;-52
2021/05/23 04:04:09;;;;;;;2.20;2.00;;;;;20.30;99909.00;;;;2047158;28;20276;-51
2021/05/23 04:05:10;;;;;;;2.33;2.13;;;;;20.30;99913.00;;;;2053281;28;20792;-51
2021/05/23 04:06:11;;;;;;;2.57;2.10;;;;;20.30;99916.00;;;;2054078;28;20221;-52
2021/05/23 04:07:12;;;;;;;2.33;2.13;;;;;20.30;99909.00;;;;2055042;28;20223;-49
2021/05/23 04:08:12;;;;;;;4.75;2.50;;;;;20.30;99911.00;;;;2051004;28;20216;-53
2021/05/23 04:09:13;;;;;;;2.33;2.13;;;;;20.30;99920.00;;;;2047135;28;20220;-52
2021/05/23 04:10:16;;;;;;;3.13;2.75;;;;;20.30;99915.00;;;;2051316;28;20216;-53
2021/05/23 04:11:20;;;;;;;2.38;2.25;;;;;20.30;99919.00;;;;2047399;28;20225;-53
2021/05/23 04:12:25;;;;;;;2.17;2.08;;;;;20.10;99921.00;;;;2051921;28;20212;-53
2021/05/23 04:13:26;;;;;;;2.00;1.90;;;;;20.30;99922.00;;;;2051216;28;20212;-53
2021/05/23 04:14:26;;;;;;;2.40;2.20;;;;;20.30;99917.00;;;;2046317;28;20208;-54
2021/05/23 04:15:27;;;;;;;3.47;2.70;;;;;20.20;99925.00;;;;2046209;28;20224;-52
2021/05/23 04:16:27;;;;;;;2.13;2.03;;;;;20.30;99926.00;;;;2045700;28;20261;-51
2021/05/23 04:17:28;;;;;;;2.07;1.93;;;;;20.30;99930.00;;;;2046398;28;20701;-53
2021/05/23 04:18:28;;;;;;;2.90;2.70;;;;;20.20;99929.00;;;;2046386;28;20274;-54
2021/05/23 04:19:29;;;;;;;2.80;2.50;;;;;20.20;99920.00;;;;2046451;28;20713;-54
2021/05/23 04:20:29;;;;;;;2.50;2.20;;;;;20.30;99921.00;;;;2046525;28;20619;-54
2021/05/23 04:21:29;;;;;;;2.80;2.50;;;;;20.30;99914.00;;;;2045705;28;20291;-51
2021/05/23 04:22:30;;;;;;;2.80;2.20;;;;;20.30;99926.00;;;;2046890;29;20221;-53
2021/05/23 04:23:30;;;;;;;2.60;2.40;;;;;20.20;99924.00;;;;2046830;28;20244;-54
2021/05/23 04:24:34;;;;;;;2.47;2.37;;;;;20.20;99933.00;;;;2046999;28;20236;-54
2021/05/23 04:25:34;;;;;;;3.42;2.50;;;;;20.20;99930.00;;;;2046562;28;20244;-53
2021/05/23 04:26:34;;;;;;;2.73;2.53;;;;;20.20;99938.00;;;;2046690;28;20893;-54
2021/05/23 04:27:36;;;;;;;2.77;2.57;;;;;20.20;99928.00;;;;2038304;29;20315;-54
2021/05/23 04:28:36;;;;;;;2.75;2.40;;;;;20.20;99933.00;;;;2038417;29;20233;-53
2021/05/23 04:29:36;;;;;;;2.90;2.40;;;;;20.20;99930.00;;;;2046107;28;20231;-54
2021/05/23 04:30:37;;;;;;;3.13;2.60;;;;;20.20;99937.00;;;;2046123;28;20835;-53
2021/05/23 04:31:37;;;;;;;2.50;2.30;;;;;20.20;99934.00;;;;2045336;28;20270;-54
2021/05/23 04:32:38;;;;;;;2.60;2.40;;;;;20.20;99935.00;;;;2046193;28;20228;-53
2021/05/23 04:33:38;;;;;;;2.53;2.33;;;;;20.20;99938.00;;;;2049418;28;20243;-53
2021/05/23 04:34:39;;;;;;;2.60;2.40;;;;;20.20;99946.00;;;;2054269;28;20224;-53
2021/05/23 04:35:39;;;;;;;2.67;2.50;;;;;20.20;99948.00;;;;2045530;29;20283;-53
2021/05/23 04:36:39;;;;;;;2.47;2.37;;;;;20.20;99946.00;;;;2045692;29;20231;-54
2021/05/23 04:37:40;;;;;;;2.83;2.63;;;;;20.20;99951.00;;;;2054124;28;20299;-54
2021/05/23 04:38:40;;;;;;;2.90;2.70;;;;;20.20;99950.00;;;;2053664;28;20223;-51
2021/05/23 04:39:40;;;;;;;2.90;2.70;;;;;20.20;99956.00;;;;2046677;29;20217;-54
2021/05/23 04:40:41;;;;;;;3.30;2.40;;;;;20.20;99954.00;;;;2047912;28;20268;-54
2021/05/23 04:41:41;;;;;;;2.70;2.50;;;;;20.20;99949.00;;;;2048228;28;20324;-54
2021/05/23 04:42:42;;;;;;;2.63;2.43;;;;;20.20;99948.00;;;;2048962;28;20216;-55
2021/05/23 04:43:42;;;;;;;2.80;2.60;;;;;20.20;99953.00;;;;2048099;28;20220;-50
2021/05/23 04:44:42;;;;;;;2.47;2.27;;;;;20.20;99951.00;;;;2046347;28;20681;-52
2021/05/23 04:45:43;;;;;;;2.30;2.10;;;;;20.20;99960.00;;;;2046537;28;20630;-54
2021/05/23 04:46:43;;;;;;;2.67;2.27;;;;;20.20;99961.00;;;;2045743;28;20763;-54
2021/05/23 04:47:43;;;;;;;2.90;2.70;;;;;20.20;99960.00;;;;2045919;29;20571;-54
2021/05/23 04:48:43;;;;;;;2.67;2.47;;;;;20.20;99961.00;;;;2046519;28;20255;-54
2021/05/23 04:49:44;;;;;;;2.33;2.20;;;;;20.20;99967.00;;;;2046566;28;20368;-51
2021/05/23 04:50:44;;;;;;;2.60;2.40;;;;;20.20;99968.00;;;;2046370;28;20235;-52
2021/05/23 04:51:45;;;;;;;2.63;2.43;;;;;20.20;99970.00;;;;2045746;28;20757;-52
2021/05/23 04:52:45;;;;;;;3.23;2.60;;;;;20.20;99971.00;;;;2046529;28;20264;-53
2021/05/23 04:53:45;;;;;;;2.70;2.50;;;;;20.20;99968.00;;;;2046401;28;20227;-54
2021/05/23 04:54:46;;;;;;;2.70;2.50;;;;;20.20;99973.00;;;;2046277;28;20264;-54
2021/05/23 04:55:46;;;;;;;2.83;2.63;;;;;20.20;99971.00;;;;2046118;28;20220;-53
2021/05/23 04:56:46;;;;;;;2.40;2.20;;;;;20.20;99969.00;;;;2046571;28;20231;-54
2021/05/23 04:57:47;;;;;;;2.60;2.40;;;;;20.20;99975.00;;;;2046542;28;20224;-53
2021/05/23 04:58:47;;;;;;;2.77;2.57;;;;;20.20;99970.00;;;;2046489;28;20225;-53
2021/05/23 04:59:50;;;;;;;3.13;2.83;;;;;20.20;99975.00;;;;2046518;28;20639;-53
2021/05/23 05:00:51;;;;;;;2.45;2.30;;;;;20.00;99980.00;;;;2046269;28;21329;-54
2021/05/23 05:01:51;;;;;;;3.10;2.90;;;;;20.20;99978.00;;;;2045366;28;20216;-51
2021/05/23 05:02:51;;;;;;;2.90;2.70;;;;;20.20;99979.00;;;;2046185;28;20216;-54
2021/05/23 05:03:52;;;;;;;3.30;3.00;;;;;20.20;99985.00;;;;2046577;28;20221;-56
2021/05/23 05:04:52;;;;;;;2.60;2.50;;;;;20.20;99976.00;;;;2046188;28;20291;-56
2021/05/23 05:05:52;;;;;;;2.90;2.70;;;;;20.20;99977.00;;;;2046277;28;20209;-55
2021/05/23 05:06:53;;;;;;;3.23;2.53;;;;;20.20;99980.00;;;;2046466;28;20217;-52
2021/05/23 05:07:53;;;;;;;3.03;2.80;;;;;20.20;99984.00;;;;2046485;28;20213;-50